createdAt,value
2022-07-25T00:00:29.751Z,7.10
2022-07-25T14:05:40.093Z,5.53
2022-07-25T14:08:08.221Z,5.22
2022-07-25T14:10:35.906Z,4.72
2022-07-25T14:13:03.552Z,5.13
2022-07-25T14:15:31.227Z,5.55
2022-07-25T14:17:58.775Z,5.47
2022-07-25T14:45:25.496Z,3.67
2022-07-25T14:48:08.388Z,5.75
2022-07-25T14:50:37.135Z,5.68
2022-07-25T14:53:40.787Z,5.68
2022-07-25T14:56:32.688Z,6.40
2022-07-25T14:59:44.211Z,5.80
2022-07-25T15:02:35.369Z,5.57
2022-07-25T15:05:13.376Z,5.75
2022-07-25T15:07:51.703Z,5.80
2022-07-25T15:10:28.614Z,5.10
2022-07-25T15:16:10.788Z,4.80
2022-07-25T15:29:21.407Z,5.10
2022-07-25T15:31:49.241Z,5.18
2022-07-25T15:34:17.230Z,8.13
2022-07-25T15:36:44.924Z,3.88
2022-07-25T15:39:12.764Z,3.22
2022-07-25T15:41:40.504Z,2.97
2022-07-25T15:44:08.171Z,3.08
2022-07-25T15:46:39.968Z,3.28
2022-07-25T15:49:07.989Z,4.00
2022-07-25T15:51:36.422Z,4.00
2022-07-25T15:54:04.299Z,4.18
2022-07-25T15:56:32.064Z,3.67
2022-07-25T15:58:59.913Z,3.75
2022-07-25T16:01:28.095Z,3.95
2022-07-25T16:03:59.829Z,3.90
2022-07-25T16:08:56.102Z,4.32
2022-07-25T16:11:23.911Z,4.07
2022-07-25T16:13:51.674Z,4.18
2022-07-25T16:16:22.038Z,4.20
2022-07-25T16:18:50.055Z,4.05
2022-07-25T16:21:19.239Z,4.40
2022-07-25T16:23:47.029Z,3.80
2022-07-25T16:26:14.778Z,4.20
2022-07-25T16:28:42.736Z,4.15
2022-07-25T16:31:10.569Z,4.07
2022-07-25T16:33:38.376Z,4.28
2022-07-25T16:36:06.438Z,4.22
2022-07-25T16:38:35.639Z,4.40
2022-07-25T16:41:03.416Z,4.20
2022-07-25T16:43:31.130Z,3.80
2022-07-25T16:45:58.864Z,4.07
2022-07-25T16:48:26.559Z,4.55
2022-07-25T16:50:54.427Z,4.55
2022-07-25T16:53:22.501Z,4.57
2022-07-25T16:55:51.614Z,4.38
2022-07-25T16:58:19.427Z,4.30
2022-07-25T17:00:47.254Z,4.53
2022-07-25T17:03:16.260Z,4.00
2022-07-25T17:05:44.083Z,3.83
2022-07-25T17:08:11.870Z,4.22
2022-07-25T17:10:40.152Z,3.90
2022-07-25T17:13:09.515Z,4.68
2022-07-25T17:15:37.357Z,3.80
2022-07-25T17:18:05.608Z,4.28
2022-07-25T17:20:33.302Z,3.90
2022-07-25T17:23:01.287Z,4.30
2022-07-25T17:25:29.180Z,4.53
2022-07-25T17:27:57.050Z,4.35
2022-07-25T17:30:27.259Z,4.70
2022-07-25T17:32:55.031Z,6.65
2022-07-25T17:35:22.804Z,5.03
2022-07-25T17:37:50.583Z,4.80
2022-07-25T17:40:18.398Z,5.45
2022-07-25T17:42:47.650Z,5.22
2022-07-25T17:45:15.997Z,5.95
2022-07-25T17:47:45.426Z,5.32
2022-07-25T17:50:14.083Z,4.93
2022-07-25T17:52:41.715Z,5.22
2022-07-25T17:55:10.201Z,5.63
2022-07-25T17:57:38.034Z,5.55
2022-07-25T18:00:06.918Z,5.47
2022-07-25T18:02:34.676Z,6.07
2022-07-25T18:05:03.866Z,5.47
2022-07-25T18:07:31.568Z,5.55
2022-07-25T18:10:01.035Z,5.63
2022-07-25T18:12:29.519Z,6.03
2022-07-25T18:14:57.452Z,5.65
2022-07-25T18:17:25.155Z,5.68
2022-07-25T18:19:52.733Z,5.40
2022-07-25T18:22:21.715Z,5.07
2022-07-25T18:24:49.461Z,5.28
2022-07-25T18:27:17.239Z,5.95
2022-07-25T18:29:44.929Z,5.80
2022-07-25T18:32:12.620Z,5.43
2022-07-25T18:34:40.279Z,5.68
2022-07-25T18:37:07.963Z,6.00
2022-07-25T18:39:37.132Z,6.22
2022-07-25T18:42:04.941Z,5.47
2022-07-25T18:44:32.940Z,6.13
2022-07-25T18:47:02.086Z,6.10
2022-07-25T18:49:29.784Z,6.07
2022-07-25T18:51:57.586Z,6.00
2022-07-25T18:54:25.261Z,6.75
2022-07-25T18:56:54.330Z,7.15
2022-07-25T18:59:24.016Z,6.05
2022-07-25T19:01:53.235Z,5.75
2022-07-25T19:04:20.978Z,5.72
2022-07-25T19:06:49.940Z,5.95
2022-07-25T19:09:17.995Z,5.68
2022-07-25T19:11:45.622Z,5.80
2022-07-25T19:14:14.891Z,6.10
2022-07-25T19:16:42.855Z,5.70
2022-07-25T19:19:10.944Z,5.78
2022-07-25T19:21:38.798Z,6.03
2022-07-25T19:24:07.679Z,5.70
2022-07-25T19:26:35.696Z,5.03
2022-07-25T19:29:03.298Z,5.63
2022-07-25T19:31:32.541Z,5.68
2022-07-25T19:34:00.189Z,4.80
2022-07-25T19:36:27.831Z,5.50
2022-07-25T19:38:55.490Z,5.70
2022-07-25T19:41:23.226Z,4.53
2022-07-25T19:43:52.416Z,5.35
2022-07-25T19:46:20.191Z,5.15
2022-07-25T19:48:50.224Z,4.63
2022-07-25T19:51:18.005Z,4.60
2022-07-25T19:53:45.636Z,4.25
2022-07-25T19:56:13.237Z,4.60
2022-07-25T19:58:43.483Z,3.92
2022-07-25T20:01:11.697Z,4.57
2022-07-25T20:03:39.365Z,4.05
2022-07-25T20:06:08.994Z,4.10
2022-07-25T20:08:37.087Z,4.57
2022-07-25T20:11:04.900Z,3.65
2022-07-25T20:13:32.568Z,4.03
2022-07-25T20:16:00.399Z,3.75
2022-07-25T20:18:28.084Z,3.92
2022-07-25T20:20:55.691Z,3.60
2022-07-25T20:23:25.436Z,4.07
2022-07-25T20:25:53.265Z,3.95
2022-07-25T20:28:20.838Z,4.10
2022-07-25T20:30:48.577Z,3.75
2022-07-25T20:33:17.228Z,3.38
2022-07-25T20:35:45.220Z,3.42
2022-07-25T20:38:12.841Z,3.42
2022-07-25T20:40:49.304Z,3.55
2022-07-25T20:43:17.718Z,3.03
2022-07-25T20:45:45.718Z,3.10
2022-07-25T20:48:15.212Z,3.17
2022-07-25T20:50:43.297Z,3.30
2022-07-25T20:53:11.324Z,3.10
2022-07-25T20:55:39.280Z,3.15
2022-07-25T20:58:08.230Z,2.53
2022-07-25T21:00:35.899Z,2.92
2022-07-25T21:03:03.739Z,2.70
2022-07-25T21:05:31.521Z,2.40
2022-07-25T21:07:59.127Z,2.67
2022-07-25T21:10:27.108Z,2.33
2022-07-25T21:12:56.616Z,2.53
2022-07-25T21:15:25.833Z,2.42
2022-07-25T21:17:53.437Z,2.67
2022-07-25T21:20:21.003Z,2.65
2022-07-25T21:22:48.683Z,2.42
2022-07-25T21:25:16.326Z,2.70
2022-07-25T21:27:44.015Z,2.70
2022-07-25T21:30:12.700Z,2.60
2022-07-25T21:32:42.477Z,2.38
2022-07-25T21:35:10.395Z,2.15
2022-07-25T21:37:38.098Z,2.50
2022-07-25T21:40:06.498Z,2.00
2022-07-25T21:42:34.066Z,1.70
2022-07-25T21:45:01.576Z,2.08
2022-07-25T21:47:29.078Z,1.77
2022-07-25T21:50:15.403Z,2.15
2022-07-25T21:52:52.366Z,2.13
2022-07-25T21:55:20.899Z,1.85
2022-07-25T21:57:48.928Z,2.20
2022-07-25T22:00:16.844Z,1.75
2022-07-25T22:02:45.656Z,1.73
2022-07-25T22:05:15.916Z,2.00
2022-07-25T22:07:44.649Z,2.00
2022-07-25T22:10:13.863Z,2.00
2022-07-25T22:12:41.890Z,1.88
2022-07-25T22:15:12.127Z,2.15
2022-07-25T22:17:48.945Z,1.98
2022-07-25T22:20:19.125Z,1.83
2022-07-25T22:22:47.107Z,1.90
2022-07-25T22:25:14.726Z,1.90
2022-07-25T22:27:42.279Z,2.03
2022-07-25T22:30:16.391Z,1.80
2022-07-25T22:32:46.178Z,1.98
2022-07-25T22:35:13.900Z,1.92
2022-07-25T22:37:42.760Z,1.92
2022-07-25T22:40:11.182Z,1.75
2022-07-25T22:42:38.786Z,1.40
2022-07-25T22:45:07.798Z,2.15
2022-07-25T22:47:35.377Z,1.67
2022-07-25T22:50:04.042Z,1.77
2022-07-25T22:52:31.653Z,1.58
2022-07-25T22:55:00.525Z,1.83
2022-07-25T22:57:28.076Z,1.70
2022-07-25T22:59:55.582Z,1.50
2022-07-25T23:02:24.113Z,2.00
2022-07-25T23:04:51.664Z,1.50
2022-07-25T23:07:19.203Z,1.30
2022-07-25T23:09:46.702Z,1.42
2022-07-25T23:12:15.555Z,1.35
2022-07-25T23:14:43.107Z,1.30
2022-07-25T23:17:20.053Z,1.50
2022-07-25T23:19:49.017Z,1.20
2022-07-25T23:22:17.191Z,1.60
2022-07-25T23:24:45.577Z,1.17
2022-07-25T23:27:13.754Z,1.30
2022-07-25T23:29:43.315Z,1.25
2022-07-25T23:32:10.882Z,1.30
2022-07-25T23:34:38.560Z,1.52
2022-07-25T23:37:06.209Z,1.35
2022-07-25T23:39:33.887Z,1.88
2022-07-25T23:42:02.366Z,1.45
2022-07-25T23:44:30.166Z,1.60
2022-07-25T23:46:59.847Z,1.08
2022-07-25T23:49:29.051Z,1.88
2022-07-25T23:51:57.203Z,1.63
2022-07-25T23:54:25.594Z,1.23
2022-07-25T23:56:53.304Z,1.55
2022-07-25T23:59:21.001Z,1.00
